Wetterdaten: Woche 23.05.16 - 29.05.16 (KW21)
Datum Zeit Temp. Aussen Temp. o. S. +5cm Feuchte Auss BlattFeu 1 Luftdruck Regen Sonnenschein Regendauer Solar Windben Empfang
23.05.2016 00:00 14,6 C 14,4 C 13,2 C 97 % 15 lf 1006,7 hPa 0,0 l/m 0,00 h 0,00 h 0 W/m 5,9 km/h (2 Bft) 92,28 %
23.05.2016 01:00 14,5 C 14,1 C 12,8 C 97 % 15 lf 1006,5 hPa 0,0 l/m 0,00 h 0,00 h 0 W/m 5,0 km/h (1 Bft) 95,52 %
23.05.2016 02:00 14,3 C 13,9 C 12,8 C 97 % 15 lf 1006,3 hPa 0,0 l/m 0,00 h 0,00 h 0 W/m 8,6 km/h (2 Bft) 97,08 %
23.05.2016 03:00 14,2 C 13,9 C 12,7 C 97 % 15 lf 1006,0 hPa 0,0 l/m 0,00 h 0,17 h 0 W/m 8,7 km/h (2 Bft) 95,90 %
23.05.2016 04:00 14,1 C 13,9 C 12,4 C 97 % 15 lf 1005,8 hPa 0,2 l/m 0,00 h 0,00 h 0 W/m 8,6 km/h (2 Bft) 95,19 %
23.05.2016 05:00 14,1 C 13,9 C 12,6 C 97 % 12 lf 1005,8 hPa 0,0 l/m 0,00 h 0,00 h 4 W/m 9,1 km/h (2 Bft) 97,43 %
23.05.2016 06:00 13,9 C 13,8 C 12,4 C 97 % 9 lf 1006,0 hPa 0,0 l/m 0,00 h 0,00 h 12 W/m 14,1 km/h (3 Bft) 96,22 %
23.05.2016 07:00 13,1 C 12,8 C 11,7 C 97 % 15 lf 1006,6 hPa 0,0 l/m 0,00 h 0,33 h 42 W/m 23,2 km/h (4 Bft) 93,95 %
23.05.2016 08:00 12,4 C 12,1 C 11,1 C 97 % 15 lf 1007,4 hPa 0,4 l/m 0,00 h 0,93 h 50 W/m 22,9 km/h (4 Bft) 97,44 %
23.05.2016 09:00 11,7 C 11,6 C 10,6 C 97 % 15 lf 1008,1 hPa 0,2 l/m 0,00 h 1,00 h 90 W/m 27,6 km/h (4 Bft) 95,87 %
23.05.2016 10:00 11,4 C 11,6 C 10,7 C 97 % 15 lf 1008,4 hPa 0,4 l/m 0,00 h 1,00 h 150 W/m 25,4 km/h (4 Bft) 94,59 %
23.05.2016 11:00 12,0 C 12,2 C 11,4 C 98 % 15 lf 1008,9 hPa 0,0 l/m 0,00 h 0,57 h 140 W/m 19,9 km/h (4 Bft) 95,87 %
23.05.2016 12:00 12,7 C 12,8 C 12,0 C 98 % 15 lf 1009,2 hPa 0,2 l/m 0,00 h 0,40 h 113 W/m 16,9 km/h (3 Bft) 96,01 %
23.05.2016 13:00 13,2 C 13,3 C 12,3 C 98 % 15 lf 1009,7 hPa 1,0 l/m 0,00 h 1,00 h 147 W/m 17,6 km/h (3 Bft) 95,09 %
23.05.2016 14:00 13,0 C 13,1 C 12,1 C 98 % 15 lf 1010,5 hPa 0,2 l/m 0,00 h 0,57 h 195 W/m 27,4 km/h (4 Bft) 98,72 %
23.05.2016 15:00 12,5 C 12,5 C 11,6 C 98 % 15 lf 1011,4 hPa 0,2 l/m 0,00 h 0,63 h 124 W/m 25,8 km/h (4 Bft) 93,02 %
23.05.2016 16:00 12,3 C 12,2 C 11,4 C 98 % 15 lf 1011,9 hPa 1,0 l/m 0,00 h 1,00 h 96 W/m 24,2 km/h (4 Bft) 96,73 %
23.05.2016 17:00 12,0 C 11,9 C 11,0 C 98 % 15 lf 1012,4 hPa 0,2 l/m 0,00 h 0,73 h 85 W/m 24,1 km/h (4 Bft) 97,65 %
23.05.2016 18:00 11,5 C 11,3 C 10,5 C 98 % 15 lf 1013,1 hPa 0,2 l/m 0,00 h 0,23 h 59 W/m 27,4 km/h (4 Bft) 95,80 %
23.05.2016 19:00 11,2 C 11,1 C 10,2 C 98 % 15 lf 1013,8 hPa 0,0 l/m 0,00 h 0,00 h 32 W/m 25,4 km/h (4 Bft) 94,17 %
23.05.2016 20:00 10,9 C 10,6 C 9,6 C 97 % 15 lf 1014,4 hPa 0,2 l/m 0,00 h 0,43 h 16 W/m 22,1 km/h (4 Bft) 97,51 %
23.05.2016 21:00 10,7 C 10,6 C 9,4 C 97 % 15 lf 1014,7 hPa 0,2 l/m 0,00 h 0,83 h 4 W/m 21,0 km/h (4 Bft) 94,95 %
23.05.2016 22:00 10,6 C 10,5 C 9,4 C 98 % 15 lf 1015,1 hPa 0,4 l/m 0,00 h 1,00 h 0 W/m 22,0 km/h (4 Bft) 96,65 %
23.05.2016 23:00 10,5 C 10,6 C 9,4 C 98 % 15 lf 1015,4 hPa 0,6 l/m 0,00 h 0,63 h 0 W/m 16,3 km/h (3 Bft) 94,95 %
24.05.2016 00:00 10,6 C 10,6 C 9,4 C 98 % 15 lf 1015,5 hPa 0,2 l/m 0,00 h 0,83 h 0 W/m 16,2 km/h (3 Bft) 95,08 %
24.05.2016 01:00 10,8 C 10,6 C 9,4 C 98 % 15 lf 1015,4 hPa 0,2 l/m 0,00 h 0,87 h 0 W/m 15,1 km/h (3 Bft) 97,43 %
24.05.2016 02:00 10,6 C 10,4 C 9,4 C 98 % 15 lf 1015,9 hPa 0,0 l/m 0,00 h 0,73 h 0 W/m 15,7 km/h (3 Bft) 95,52 %
24.05.2016 03:00 10,1 C 9,7 C 8,9 C 98 % 15 lf 1015,8 hPa 0,2 l/m 0,00 h 0,87 h 0 W/m 18,6 km/h (3 Bft) 93,66 %
24.05.2016 04:00 9,9 C 9,7 C 8,8 C 98 % 15 lf 1015,7 hPa 0,0 l/m 0,00 h 0,62 h 0 W/m 14,6 km/h (3 Bft) 97,64 %
24.05.2016 05:00 9,9 C 9,6 C 8,9 C 98 % 15 lf 1015,9 hPa 0,0 l/m 0,00 h 0,03 h 6 W/m 13,5 km/h (3 Bft) 97,36 %
24.05.2016 06:00 9,8 C 9,4 C 8,9 C 98 % 15 lf 1016,1 hPa 0,0 l/m 0,00 h 0,00 h 13 W/m 15,2 km/h (3 Bft) 93,72 %
24.05.2016 07:00 9,7 C 9,9 C 8,9 C 97 % 15 lf 1016,2 hPa 0,0 l/m 0,00 h 0,00 h 49 W/m 16,4 km/h (3 Bft) 97,58 %
24.05.2016 08:00 10,1 C 10,8 C 9,2 C 97 % 14 lf 1016,3 hPa 0,0 l/m 0,00 h 0,00 h 103 W/m 15,5 km/h (3 Bft) 96,52 %
24.05.2016 09:00 10,6 C 11,6 C 9,6 C 96 % 2 lf 1016,4 hPa 0,0 l/m 0,00 h 0,00 h 160 W/m 15,7 km/h (3 Bft) 95,11 %
24.05.2016 10:00 11,0 C 12,4 C 10,1 C 91 % 0 lf 1016,3 hPa 0,0 l/m 0,00 h 0,00 h 155 W/m 18,9 km/h (3 Bft) 96,75 %
24.05.2016 11:00 11,5 C 13,3 C 11,2 C 87 % 0 lf 1016,4 hPa 0,0 l/m 0,00 h 0,00 h 163 W/m 13,8 km/h (3 Bft) 95,31 %
24.05.2016 12:00 11,9 C 14,5 C 11,9 C 86 % 0 lf 1016,6 hPa 0,0 l/m 0,00 h 0,00 h 217 W/m 10,5 km/h (2 Bft) 94,80 %
24.05.2016 13:00 13,2 C 17,8 C 14,0 C 82 % 0 lf 1016,4 hPa 0,0 l/m 0,53 h 0,00 h 413 W/m 13,8 km/h (3 Bft) 98,80 %
24.05.2016 14:00 14,6 C 19,8 C 16,3 C 75 % 0 lf 1016,0 hPa 0,0 l/m 0,73 h 0,00 h 529 W/m 19,5 km/h (3 Bft) 94,00 %
24.05.2016 15:00 15,0 C 18,2 C 16,2 C 73 % 0 lf 1015,7 hPa 0,2 l/m 0,33 h 0,00 h 363 W/m 17,3 km/h (3 Bft) 96,27 %
24.05.2016 16:00 14,6 C 16,6 C 15,0 C 75 % 0 lf 1015,4 hPa 0,0 l/m 0,07 h 0,00 h 235 W/m 15,2 km/h (3 Bft) 97,64 %
24.05.2016 17:00 14,4 C 15,7 C 14,1 C 76 % 0 lf 1015,2 hPa 0,0 l/m 0,00 h 0,00 h 144 W/m 15,5 km/h (3 Bft) 95,59 %
24.05.2016 18:00 13,9 C 14,7 C 13,3 C 76 % 0 lf 1015,2 hPa 0,0 l/m 0,00 h 0,00 h 113 W/m 15,1 km/h (3 Bft) 94,52 %
24.05.2016 19:00 13,1 C 13,2 C 12,0 C 80 % 0 lf 1015,2 hPa 0,0 l/m 0,00 h 0,00 h 53 W/m 17,2 km/h (3 Bft) 98,30 %
24.05.2016 20:00 12,2 C 12,4 C 11,2 C 82 % 0 lf 1015,5 hPa 0,0 l/m 0,00 h 0,00 h 37 W/m 15,2 km/h (3 Bft) 96,02 %
24.05.2016 21:00 11,6 C 11,5 C 10,4 C 84 % 0 lf 1015,5 hPa 0,0 l/m 0,00 h 0,00 h 9 W/m 10,9 km/h (2 Bft) 95,30 %
24.05.2016 22:00 11,1 C 10,5 C 9,1 C 86 % 13 lf 1015,8 hPa 0,0 l/m 0,00 h 0,43 h 0 W/m 8,0 km/h (2 Bft) 95,89 %
24.05.2016 23:00 10,7 C 10,0 C 8,6 C 88 % 15 lf 1015,5 hPa 0,0 l/m 0,00 h 0,03 h 0 W/m 5,1 km/h (1 Bft) 96,88 %
25.05.2016 00:00 10,3 C 10,0 C 8,9 C 90 % 3 lf 1015,7 hPa 0,0 l/m 0,00 h 0,13 h 0 W/m 6,2 km/h (2 Bft) 93,27 %
25.05.2016 01:00 10,3 C 10,0 C 8,9 C 91 % 0 lf 1015,4 hPa 0,0 l/m 0,00 h 0,00 h 0 W/m 3,8 km/h (1 Bft) 96,01 %
25.05.2016 02:00 10,2 C 10,0 C 8,9 C 92 % 0 lf 1015,2 hPa 0,0 l/m 0,00 h 0,00 h 0 W/m 1,5 km/h (1 Bft) 94,02 %
25.05.2016 03:00 10,1 C 10,0 C 8,9 C 92 % 0 lf 1015,0 hPa 0,0 l/m 0,00 h 0,00 h 0 W/m 2,2 km/h (1 Bft) 97,72 %
25.05.2016 04:00 10,0 C 9,8 C 8,9 C 92 % 1 lf 1014,9 hPa 0,0 l/m 0,00 h 0,00 h 0 W/m 0,8 km/h (0 Bft) 97,64 %
25.05.2016 05:00 9,8 C 9,4 C 8,5 C 93 % 0 lf 1014,7 hPa 0,0 l/m 0,00 h 0,03 h 9 W/m 0,0 km/h (0 Bft) 93,59 %
25.05.2016 06:00 9,7 C 9,8 C 8,8 C 93 % 0 lf 1014,6 hPa 0,0 l/m 0,00 h 0,00 h 37 W/m 2,1 km/h (1 Bft) 97,29 %
25.05.2016 07:00 9,8 C 10,9 C 9,9 C 94 % 0 lf 1014,9 hPa 0,0 l/m 0,00 h 0,00 h 85 W/m 7,0 km/h (2 Bft) 97,01 %
25.05.2016 08:00 10,6 C 12,9 C 11,7 C 92 % 0 lf 1015,0 hPa 0,0 l/m 0,43 h 0,00 h 203 W/m 9,0 km/h (2 Bft) 95,37 %
25.05.2016 09:00 11,9 C 15,1 C 13,7 C 86 % 0 lf 1015,1 hPa 0,0 l/m 0,80 h 0,00 h 326 W/m 11,4 km/h (2 Bft) 95,89 %
25.05.2016 10:00 13,6 C 18,3 C 16,6 C 79 % 0 lf 1015,0 hPa 0,0 l/m 0,93 h 0,00 h 444 W/m 11,7 km/h (2 Bft) 96,30 %
25.05.2016 11:00 15,1 C 21,8 C 19,6 C 73 % 0 lf 1014,9 hPa 0,0 l/m 1,00 h 0,00 h 728 W/m 12,9 km/h (3 Bft) 95,73 %
25.05.2016 12:00 16,6 C 23,9 C 20,9 C 68 % 0 lf 1014,8 hPa 0,0 l/m 0,93 h 0,00 h 588 W/m 12,6 km/h (3 Bft) 95,91 %
25.05.2016 13:00 17,7 C 24,5 C 20,6 C 66 % 0 lf 1014,7 hPa 0,0 l/m 1,00 h 0,00 h 692 W/m 12,0 km/h (2 Bft) 96,37 %
25.05.2016 14:00 18,0 C 23,4 C 20,5 C 64 % 0 lf 1014,6 hPa 0,0 l/m 1,00 h 0,00 h 617 W/m 11,5 km/h (2 Bft) 97,37 %
25.05.2016 15:00 18,8 C 27,0 C 19,6 C 62 % 0 lf 1014,3 hPa 0,0 l/m 1,00 h 0,00 h 830 W/m 11,6 km/h (2 Bft) 94,23 %
25.05.2016 16:00 19,2 C 23,5 C 19,7 C 61 % 0 lf 1014,1 hPa 0,0 l/m 0,70 h 0,00 h 529 W/m 10,8 km/h (2 Bft) 97,58 %
25.05.2016 17:00 17,5 C 17,6 C 16,7 C 66 % 0 lf 1014,3 hPa 0,0 l/m 0,00 h 0,00 h 134 W/m 13,9 km/h (3 Bft) 98,01 %
25.05.2016 18:00 16,7 C 17,5 C 16,6 C 69 % 0 lf 1014,2 hPa 0,0 l/m 0,00 h 0,00 h 126 W/m 8,8 km/h (2 Bft) 93,56 %
25.05.2016 19:00 16,5 C 16,8 C 15,8 C 71 % 0 lf 1014,2 hPa 0,0 l/m 0,00 h 0,00 h 78 W/m 6,6 km/h (2 Bft) 97,16 %
25.05.2016 20:00 16,3 C 16,1 C 14,9 C 72 % 0 lf 1014,3 hPa 0,0 l/m 0,47 h 0,00 h 60 W/m 2,8 km/h (1 Bft) 97,85 %
25.05.2016 21:00 15,4 C 13,6 C 11,8 C 76 % 0 lf 1014,6 hPa 0,0 l/m 0,00 h 0,00 h 9 W/m 1,5 km/h (1 Bft) 94,45 %
25.05.2016 22:00 13,9 C 12,3 C 10,9 C 81 % 0 lf 1014,9 hPa 0,0 l/m 0,00 h 0,00 h 0 W/m 0,7 km/h (0 Bft) 95,68 %
25.05.2016 23:00 12,9 C 11,3 C 10,1 C 85 % 0 lf 1015,1 hPa 0,0 l/m 0,00 h 0,00 h 0 W/m 0,3 km/h (0 Bft) 96,56 %
26.05.2016 00:00 12,2 C 11,4 C 10,5 C 89 % 0 lf 1015,2 hPa 0,0 l/m 0,00 h 0,00 h 0 W/m 1,7 km/h (1 Bft) 94,18 %
26.05.2016 01:00 11,7 C 10,5 C 9,9 C 90 % 0 lf 1015,2 hPa 0,0 l/m 0,00 h 0,00 h 0 W/m 0,5 km/h (0 Bft) 97,91 %
26.05.2016 02:00 11,0 C 9,2 C 8,3 C 91 % 3 lf 1015,1 hPa 0,0 l/m 0,00 h 0,00 h 0 W/m 0,3 km/h (0 Bft) 94,26 %
26.05.2016 03:00 10,1 C 8,4 C 7,8 C 92 % 14 lf 1015,1 hPa 0,0 l/m 0,00 h 0,00 h 0 W/m 0,5 km/h (0 Bft) 95,30 %
26.05.2016 04:00 9,6 C 9,2 C 8,5 C 93 % 15 lf 1015,0 hPa 0,0 l/m 0,00 h 0,00 h 0 W/m 0,5 km/h (0 Bft) 97,63 %
26.05.2016 05:00 9,9 C 9,7 C 9,2 C 95 % 14 lf 1015,2 hPa 0,0 l/m 0,00 h 0,00 h 8 W/m 1,0 km/h (0 Bft) 96,51 %
26.05.2016 06:00 10,3 C 10,5 C 10,0 C 95 % 2 lf 1015,4 hPa 0,0 l/m 0,00 h 0,00 h 37 W/m 0,8 km/h (0 Bft) 94,10 %
26.05.2016 07:00 11,2 C 13,1 C 11,9 C 96 % 0 lf 1015,6 hPa 0,0 l/m 0,00 h 0,00 h 117 W/m 2,7 km/h (1 Bft) 96,58 %
26.05.2016 08:00 12,6 C 16,7 C 13,2 C 97 % 0 lf 1016,0 hPa 0,0 l/m 0,80 h 0,00 h 307 W/m 8,7 km/h (2 Bft) 95,23 %
26.05.2016 09:00 15,5 C 22,3 C 16,3 C 90 % 0 lf 1016,1 hPa 0,0 l/m 1,00 h 0,00 h 548 W/m 9,4 km/h (2 Bft) 96,51 %
26.05.2016 10:00 18,6 C 25,4 C 23,8 C 75 % 0 lf 1015,9 hPa 0,0 l/m 1,00 h 0,00 h 679 W/m 11,0 km/h (2 Bft) 93,75 %
26.05.2016 11:00 20,1 C 26,7 C 24,3 C 67 % 0 lf 1015,7 hPa 0,0 l/m 0,93 h 0,00 h 777 W/m 10,4 km/h (2 Bft) 95,02 %
26.05.2016 12:00 21,1 C 27,9 C 24,6 C 60 % 0 lf 1015,6 hPa 0,0 l/m 0,73 h 0,00 h 708 W/m 7,8 km/h (2 Bft) 96,15 %
26.05.2016 13:00 22,8 C 30,5 C 23,6 C 54 % 0 lf 1015,5 hPa 0,0 l/m 1,00 h 0,00 h 983 W/m 9,1 km/h (2 Bft) 97,72 %
26.05.2016 14:00 23,2 C 29,7 C 23,1 C 53 % 0 lf 1015,2 hPa 0,0 l/m 0,90 h 0,00 h 823 W/m 12,9 km/h (3 Bft) 94,17 %
26.05.2016 15:00 23,5 C 30,6 C 23,4 C 51 % 0 lf 1014,8 hPa 0,0 l/m 1,00 h 0,00 h 853 W/m 11,2 km/h (2 Bft) 97,44 %
26.05.2016 16:00 23,3 C 29,1 C 26,0 C 50 % 0 lf 1014,7 hPa 0,0 l/m 1,00 h 0,00 h 647 W/m 12,4 km/h (3 Bft) 96,30 %
26.05.2016 17:00 22,8 C 25,4 C 21,9 C 51 % 0 lf 1014,4 hPa 0,0 l/m 1,00 h 0,00 h 404 W/m 12,2 km/h (2 Bft) 94,88 %
26.05.2016 18:00 21,8 C 23,1 C 20,9 C 53 % 0 lf 1014,1 hPa 0,0 l/m 0,93 h 0,00 h 277 W/m 12,6 km/h (3 Bft) 96,44 %
26.05.2016 19:00 21,1 C 21,4 C 19,8 C 57 % 0 lf 1013,9 hPa 0,0 l/m 0,57 h 0,00 h 138 W/m 15,6 km/h (3 Bft) 96,29 %
26.05.2016 20:00 19,9 C 19,6 C 18,3 C 61 % 0 lf 1014,0 hPa 0,0 l/m 0,00 h 0,00 h 52 W/m 14,3 km/h (3 Bft) 95,52 %
26.05.2016 21:00 18,8 C 18,3 C 17,0 C 65 % 0 lf 1014,3 hPa 0,0 l/m 0,27 h 0,00 h 15 W/m 10,8 km/h (2 Bft) 96,01 %
26.05.2016 22:00 18,0 C 17,3 C 16,1 C 68 % 0 lf 1014,5 hPa 0,0 l/m 0,00 h 0,00 h 0 W/m 10,3 km/h (2 Bft) 96,65 %
26.05.2016 23:00 17,3 C 16,7 C 15,5 C 72 % 0 lf 1014,6 hPa 0,0 l/m 0,00 h 0,00 h 0 W/m 9,2 km/h (2 Bft) 97,08 %
27.05.2016 00:00 16,8 C 16,7 C 15,0 C 73 % 0 lf 1014,1 hPa 0,0 l/m 0,00 h 0,00 h 0 W/m 11,1 km/h (2 Bft) 91,53 %
27.05.2016 01:00 16,9 C 16,7 C 15,3 C 73 % 0 lf 1013,9 hPa 0,0 l/m 0,00 h 0,00 h 0 W/m 11,4 km/h (2 Bft) 96,93 %
27.05.2016 02:00 16,5 C 15,9 C 14,7 C 76 % 0 lf 1014,1 hPa 0,0 l/m 0,00 h 0,00 h 0 W/m 10,7 km/h (2 Bft) 97,87 %
27.05.2016 03:00 15,6 C 15,2 C 13,8 C 81 % 3 lf 1014,0 hPa 0,0 l/m 0,00 h 0,43 h 0 W/m 11,4 km/h (2 Bft) 93,52 %
27.05.2016 04:00 15,1 C 13,9 C 12,4 C 85 % 15 lf 1014,1 hPa 0,2 l/m 0,00 h 0,67 h 0 W/m 8,7 km/h (2 Bft) 96,16 %
27.05.2016 05:00 14,5 C 13,3 C 12,2 C 89 % 15 lf 1014,1 hPa 0,4 l/m 0,00 h 0,33 h 5 W/m 5,4 km/h (1 Bft) 98,22 %
27.05.2016 06:00 14,2 C 13,3 C 12,2 C 91 % 15 lf 1014,2 hPa 0,0 l/m 0,00 h 0,53 h 13 W/m 9,0 km/h (2 Bft) 94,80 %
27.05.2016 07:00 14,2 C 14,0 C 12,6 C 92 % 13 lf 1014,2 hPa 0,0 l/m 0,00 h 0,27 h 58 W/m 5,7 km/h (1 Bft) 95,80 %
27.05.2016 08:00 14,7 C 15,4 C 13,3 C 92 % 0 lf 1014,5 hPa 0,0 l/m 0,00 h 0,00 h 95 W/m 5,5 km/h (1 Bft) 95,51 %
27.05.2016 09:00 15,4 C 15,9 C 13,8 C 91 % 4 lf 1014,7 hPa 0,2 l/m 0,00 h 0,40 h 98 W/m 6,6 km/h (2 Bft) 96,58 %
27.05.2016 10:00 16,0 C 18,1 C 14,8 C 92 % 14 lf 1014,8 hPa 0,0 l/m 0,13 h 0,30 h 233 W/m 8,1 km/h (2 Bft) 96,29 %
27.05.2016 11:00 17,6 C 25,2 C 19,8 C 91 % 0 lf 1014,9 hPa 0,0 l/m 1,00 h 0,00 h 662 W/m 12,4 km/h (3 Bft) 95,24 %
27.05.2016 12:00 19,7 C 25,7 C 21,9 C 83 % 0 lf 1014,8 hPa 0,0 l/m 1,00 h 0,00 h 565 W/m 15,2 km/h (3 Bft) 95,48 %
27.05.2016 13:00 20,9 C 28,8 C 22,1 C 78 % 0 lf 1014,6 hPa 0,2 l/m 1,00 h 0,00 h 851 W/m 17,8 km/h (3 Bft) 98,34 %
27.05.2016 14:00 21,8 C 28,3 C 22,6 C 74 % 0 lf 1014,3 hPa 0,0 l/m 0,80 h 0,00 h 700 W/m 19,6 km/h (3 Bft) 94,95 %
27.05.2016 15:00 23,0 C 29,4 C 23,6 C 70 % 0 lf 1014,1 hPa 0,0 l/m 1,00 h 0,00 h 750 W/m 20,6 km/h (4 Bft) 96,13 %
27.05.2016 16:00 23,8 C 28,7 C 26,1 C 64 % 0 lf 1013,7 hPa 0,0 l/m 0,87 h 0,00 h 608 W/m 18,4 km/h (3 Bft) 98,23 %
27.05.2016 17:00 23,4 C 25,0 C 22,8 C 64 % 0 lf 1013,4 hPa 0,0 l/m 0,37 h 0,00 h 284 W/m 16,3 km/h (3 Bft) 94,87 %
27.05.2016 18:00 22,8 C 23,6 C 21,5 C 65 % 0 lf 1013,3 hPa 0,0 l/m 0,07 h 0,00 h 137 W/m 14,0 km/h (3 Bft) 95,80 %
27.05.2016 19:00 21,6 C 21,1 C 19,7 C 70 % 0 lf 1013,6 hPa 0,0 l/m 0,00 h 0,00 h 35 W/m 13,5 km/h (3 Bft) 98,50 %
27.05.2016 20:00 20,0 C 19,3 C 18,1 C 80 % 0 lf 1013,8 hPa 0,0 l/m 0,00 h 0,00 h 14 W/m 11,5 km/h (2 Bft) 94,74 %
27.05.2016 21:00 18,9 C 18,6 C 17,3 C 82 % 0 lf 1014,3 hPa 0,0 l/m 0,00 h 0,00 h 8 W/m 11,2 km/h (2 Bft) 94,44 %
27.05.2016 22:00 18,3 C 17,9 C 16,6 C 83 % 0 lf 1014,7 hPa 0,0 l/m 0,00 h 0,00 h 0 W/m 6,5 km/h (2 Bft) 97,72 %
27.05.2016 23:00 17,8 C 17,2 C 15,9 C 84 % 0 lf 1014,4 hPa 0,0 l/m 0,00 h 0,00 h 0 W/m 5,1 km/h (1 Bft) 96,80 %
28.05.2016 00:00 17,2 C 16,2 C 14,8 C 86 % 0 lf 1013,9 hPa 0,0 l/m 0,00 h 0,00 h 0 W/m 2,4 km/h (1 Bft) 94,62 %
28.05.2016 01:00 16,5 C 15,5 C 14,4 C 88 % 0 lf 1013,6 hPa 0,0 l/m 0,00 h 0,00 h 0 W/m 5,1 km/h (1 Bft) 96,87 %
28.05.2016 02:00 16,0 C 15,6 C 14,4 C 91 % 0 lf 1013,6 hPa 0,0 l/m 0,00 h 0,00 h 0 W/m 6,8 km/h (2 Bft) 96,65 %
28.05.2016 03:00 15,6 C 14,8 C 13,8 C 92 % 0 lf 1013,5 hPa 0,0 l/m 0,00 h 0,00 h 0 W/m 5,9 km/h (2 Bft) 96,87 %
28.05.2016 04:00 14,9 C 13,8 C 12,6 C 92 % 2 lf 1013,6 hPa 0,0 l/m 0,00 h 0,00 h 0 W/m 2,9 km/h (1 Bft) 94,59 %
28.05.2016 05:00 14,4 C 14,0 C 13,1 C 93 % 1 lf 1013,5 hPa 0,0 l/m 0,00 h 0,00 h 6 W/m 2,0 km/h (1 Bft) 96,79 %
28.05.2016 06:00 14,5 C 14,5 C 13,6 C 94 % 1 lf 1013,4 hPa 0,0 l/m 0,00 h 0,00 h 20 W/m 1,4 km/h (1 Bft) 96,23 %
28.05.2016 07:00 14,8 C 15,4 C 14,3 C 95 % 0 lf 1013,3 hPa 0,0 l/m 0,00 h 0,00 h 56 W/m 4,5 km/h (1 Bft) 96,73 %
28.05.2016 08:00 15,4 C 19,9 C 15,9 C 95 % 0 lf 1013,2 hPa 0,0 l/m 0,40 h 0,00 h 242 W/m 2,9 km/h (1 Bft) 94,52 %
28.05.2016 09:00 17,5 C 27,8 C 18,4 C 91 % 0 lf 1013,2 hPa 0,0 l/m 1,00 h 0,00 h 507 W/m 5,9 km/h (2 Bft) 95,55 %
28.05.2016 10:00 20,4 C 29,5 C 24,7 C 79 % 0 lf 1012,9 hPa 0,0 l/m 0,87 h 0,00 h 603 W/m 8,0 km/h (2 Bft) 95,65 %
28.05.2016 11:00 21,9 C 30,5 C 25,1 C 73 % 0 lf 1012,7 hPa 0,0 l/m 1,00 h 0,00 h 684 W/m 8,2 km/h (2 Bft) 97,15 %
28.05.2016 12:00 23,3 C 30,9 C 26,7 C 68 % 0 lf 1012,2 hPa 0,0 l/m 0,77 h 0,00 h 705 W/m 8,1 km/h (2 Bft) 95,23 %
28.05.2016 13:00 25,0 C 30,4 C 25,8 C 61 % 0 lf 1011,9 hPa 0,0 l/m 0,77 h 0,00 h 669 W/m 8,2 km/h (2 Bft) 96,87 %
28.05.2016 14:00 24,7 C 31,0 C 25,2 C 60 % 0 lf 1011,3 hPa 0,0 l/m 0,57 h 0,00 h 626 W/m 10,1 km/h (2 Bft) 97,22 %
28.05.2016 15:00 25,1 C 30,0 C 25,4 C 59 % 0 lf 1010,7 hPa 0,0 l/m 0,80 h 0,00 h 565 W/m 11,6 km/h (2 Bft) 93,60 %
28.05.2016 16:00 24,7 C 28,6 C 25,6 C 60 % 0 lf 1010,2 hPa 0,0 l/m 0,80 h 0,00 h 487 W/m 14,6 km/h (3 Bft) 97,93 %
28.05.2016 17:00 24,8 C 27,2 C 24,3 C 60 % 0 lf 1009,8 hPa 0,0 l/m 0,47 h 0,00 h 267 W/m 12,7 km/h (3 Bft) 97,87 %
28.05.2016 18:00 23,6 C 24,2 C 22,7 C 63 % 0 lf 1009,4 hPa 0,0 l/m 0,00 h 0,00 h 145 W/m 14,6 km/h (3 Bft) 92,95 %
28.05.2016 19:00 22,9 C 22,9 C 21,5 C 65 % 0 lf 1009,3 hPa 0,0 l/m 0,00 h 0,00 h 70 W/m 10,1 km/h (2 Bft) 98,00 %
28.05.2016 20:00 22,2 C 21,6 C 20,3 C 69 % 0 lf 1009,0 hPa 0,0 l/m 0,00 h 0,00 h 25 W/m 8,5 km/h (2 Bft) 97,46 %
28.05.2016 21:00 21,2 C 20,3 C 19,0 C 73 % 0 lf 1009,0 hPa 0,0 l/m 0,00 h 0,00 h 8 W/m 7,4 km/h (2 Bft) 93,95 %
28.05.2016 22:00 20,3 C 19,0 C 17,7 C 76 % 0 lf 1008,9 hPa 0,0 l/m 0,00 h 0,00 h 0 W/m 5,6 km/h (1 Bft) 97,00 %
28.05.2016 23:00 19,2 C 18,0 C 16,9 C 79 % 0 lf 1008,5 hPa 0,0 l/m 0,00 h 0,00 h 0 W/m 8,8 km/h (2 Bft) 97,00 %
29.05.2016 00:00 18,2 C 16,7 C 15,2 C 82 % 0 lf 1008,2 hPa 0,0 l/m 0,00 h 0,00 h 0 W/m 4,3 km/h (1 Bft) 96,31 %
29.05.2016 01:00 17,4 C 16,4 C 14,7 C 85 % 0 lf 1008,2 hPa 0,0 l/m 0,00 h 0,00 h 0 W/m 3,4 km/h (1 Bft) 94,81 %
29.05.2016 02:00 16,8 C 16,1 C 14,6 C 89 % 0 lf 1008,3 hPa 0,0 l/m 0,00 h 0,00 h 0 W/m 8,6 km/h (2 Bft) 96,29 %
29.05.2016 03:00 16,1 C 14,7 C 13,3 C 90 % 1 lf 1007,6 hPa 0,0 l/m 0,00 h 0,00 h 0 W/m 1,7 km/h (1 Bft) 96,80 %
29.05.2016 04:00 15,1 C 13,5 C 12,4 C 91 % 3 lf 1007,2 hPa 0,0 l/m 0,00 h 0,00 h 5 W/m 1,3 km/h (1 Bft) 97,94 %
29.05.2016 05:00 14,5 C 14,2 C 12,9 C 92 % 3 lf 1007,2 hPa 0,0 l/m 0,00 h 0,00 h 13 W/m 4,3 km/h (1 Bft) 93,88 %
29.05.2016 06:00 14,7 C 15,8 C 14,6 C 94 % 0 lf 1006,7 hPa 0,0 l/m 0,27 h 0,00 h 60 W/m 4,5 km/h (1 Bft) 95,94 %
29.05.2016 07:00 15,6 C 17,8 C 16,3 C 93 % 0 lf 1006,3 hPa 0,0 l/m 0,00 h 0,00 h 113 W/m 5,5 km/h (1 Bft) 98,36 %
29.05.2016 08:00 17,7 C 22,7 C 19,6 C 89 % 0 lf 1006,1 hPa 0,0 l/m 0,80 h 0,00 h 325 W/m 8,1 km/h (2 Bft) 95,59 %
29.05.2016 09:00 20,5 C 24,3 C 21,4 C 79 % 0 lf 1006,0 hPa 0,0 l/m 0,87 h 0,00 h 368 W/m 18,9 km/h (3 Bft) 95,44 %
29.05.2016 10:00 21,1 C 23,9 C 22,7 C 78 % 0 lf 1006,0 hPa 0,0 l/m 0,80 h 0,00 h 383 W/m 21,5 km/h (4 Bft) 96,58 %
29.05.2016 11:00 23,1 C 27,4 C 25,6 C 70 % 0 lf 1005,9 hPa 0,0 l/m 0,80 h 0,00 h 509 W/m 23,3 km/h (4 Bft) 96,80 %
29.05.2016 12:00 22,5 C 24,7 C 23,2 C 71 % 0 lf 1005,6 hPa 0,0 l/m 0,33 h 0,00 h 375 W/m 24,8 km/h (4 Bft) 94,73 %
29.05.2016 13:00 21,7 C 22,6 C 21,4 C 74 % 1 lf 1005,3 hPa 0,0 l/m 0,00 h 0,03 h 195 W/m 22,5 km/h (4 Bft) 95,72 %
29.05.2016 14:00 20,5 C 20,8 C 19,3 C 80 % 6 lf 1005,3 hPa 0,0 l/m 0,00 h 0,40 h 128 W/m 21,8 km/h (4 Bft) 97,44 %
29.05.2016 15:00 19,8 C 19,1 C 17,5 C 83 % 11 lf 1005,5 hPa 1,2 l/m 0,00 h 0,77 h 90 W/m 22,4 km/h (4 Bft) 95,65 %
29.05.2016 16:00 18,6 C 17,9 C 16,5 C 91 % 15 lf 1005,6 hPa 2,6 l/m 0,00 h 1,00 h 105 W/m 13,3 km/h (3 Bft) 94,94 %
29.05.2016 17:00 18,1 C 17,9 C 16,4 C 94 % 15 lf 1005,3 hPa 0,8 l/m 0,00 h 0,90 h 126 W/m 15,6 km/h (3 Bft) 97,93 %
29.05.2016 18:00 17,5 C 17,3 C 15,8 C 94 % 15 lf 1005,4 hPa 0,0 l/m 0,00 h 0,40 h 92 W/m 18,7 km/h (3 Bft) 95,74 %
29.05.2016 19:00 17,1 C 16,7 C 15,3 C 95 % 15 lf 1005,4 hPa 0,2 l/m 0,00 h 0,77 h 48 W/m 18,7 km/h (3 Bft) 93,81 %
29.05.2016 20:00 16,7 C 16,2 C 15,0 C 95 % 15 lf 1005,7 hPa 0,0 l/m 0,00 h 0,00 h 27 W/m 14,6 km/h (3 Bft) 97,93 %
29.05.2016 21:00 16,4 C 16,1 C 14,5 C 96 % 12 lf 1005,7 hPa 0,0 l/m 0,27 h 0,00 h 16 W/m 12,0 km/h (2 Bft) 96,79 %
29.05.2016 22:00 16,1 C 15,7 C 14,4 C 96 % 1 lf 1006,1 hPa 0,0 l/m 0,00 h 0,00 h 0 W/m 12,0 km/h (2 Bft) 95,16 %
29.05.2016 23:00 16,0 C 15,9 C 14,4 C 97 % 0 lf 1006,1 hPa 0,0 l/m 0,00 h 0,00 h 0 W/m 10,6 km/h (2 Bft) 96,40 %
Min-Datum _ 25.05.16 26.05.16 26.05.16 26.05.16 24.05.16 29.05.16 - - - - 23.05.16 23.05.16
_ Min-Zeit 06:20 03:04 02:32 15:50 09:22 13:48 - - - - 01:22 00:02
Minimum _ 9,6 C 8,3 C 7,8 C 48 % 0 lf 1005,2 hPa - - - - 0,0 km/h (0 Bft) 5,00 %
Max-Datum _ 28.05.16 28.05.16 28.05.16 23.05.16 23.05.16 24.05.16 29.05.16 24.05.16 23.05.16 27.05.16 23.05.16 23.05.16
_ Max-Zeit 15:14 13:00 12:54 10:48 00:00 11:56 16:50 13:22 03:12 11:52 18:12 02:30
Maximum _ 25,4 C 35,6 C 31,1 C 98 % 15 lf 1016,7 hPa 2,6 l/m 0,03 h 0,03 h 1135 W/m 43,9 km/h
NW (6 Bft)
100,00 %
Durchschnitt _ 15,9 C 17,2 C 15,3 C 83 % 5 lf 1012,5 hPa #12,2 l/m #38:52 h #23:17 h 256 W/m 11,4 km/h (2 Bft) 96,01 %
© 2016 W. Hausmann